Terminal Aerodrome Forecast
Issued by NWS Atlanta, GA

Home | Current Version | Previous Version | Text Only | Print | Product List | Glossary On
Versions: 1 2 3 4 5 6 7 8 9 10 11 12 13 14 15 16 17 18 19 20 21 22 23 24
000
FTUS42 KFFC 290534
TAFCSG
TAF
KCSG 290534Z 2906/3006 00000KT P6SM BKN100
     FM291300 07006KT P6SM FEW100
     FM291500 11007KT P6SM FEW100
     FM291900 15006KT P6SM FEW100
     FM292100 17005KT P6SM BKN050
     FM300300 16005KT P6SM SCT035 BKN050
     FM300500 17005KT P6SM BKN035=

USA.gov is the U.S. government's official web portal to all federal, state and local government web resources and services.